Latest Coastal Weather Observations for Smithton

IDT60701

Issued at 2:51 am EDT Saturday 28 March 2015 (issued every 10 minutes, with the page automatically refreshed every 10 minutes)

About coastal observations | Map of coastal stations | Coastal observations for TAS | Marine services | Other Formats
Station Details ID: 091292 Name: SMITHTON AERODROME Lat: -40.83 Lon: 145.08 Height: 7.5 m
Data from the previous 72 hours. | See also: Recent months at Smithton
Date/Time
EDT
Temp

°C
Wind Pressure Rain
since 9am
mm
Weather Cloud Vis
km
Sea
Height
m
Swell
Dir
 
Speed
knots
Gust
knots
hPa Trend Height
m
Period
s
Dir
28/02:30am 9.8 WSW 5 7 1022.6 - 0.2 - - - - - - -
28/02:00am 9.6 WSW 7 8 1022.7 - 0.2 - - - - - - -
28/01:30am 9.2 WSW 6 7 1022.6 - 0.2 - - - - - - -
28/01:00am 10.8 WSW 8 11 1022.7 - 0.2 - - - - - - -
28/12:30am 10.5 WSW 8 9 1022.8 - 0.2 - - - - - - -
28/12:00am 10.3 SW 5 6 1023.0 - 0.2 - - - - - - -
 
Date/Time
EDT
Temp

°C
Wind Pressure Rain
since 9am
mm
Weather Cloud Vis
km
Sea
Height
m
Swell
Dir
 
Speed
knots
Gust
knots
hPa Trend Height
m
Period
s
Dir
27/11:30pm 11.7 SW 10 13 1023.0 - 0.2 - - - - - - -
27/11:00pm 11.7 WSW 13 16 1023.0 - 0.2 - - - - - - -
27/10:30pm 11.9 WSW 8 11 1023.0 - 0.2 - - - - - - -
27/10:00pm 11.7 SW 6 7 1023.1 - 0.2 - - - - - - -
27/09:30pm 11.7 SW 9 12 1022.8 - 0.2 - - - - - - -
27/09:00pm 11.8 SW 13 17 1022.4 - 0.2 - - - - - - -
27/08:30pm 12.1 SW 13 20 1022.1 - 0.2 - - - - - - -
27/08:00pm 12.0 SW 13 18 1021.7 - 0.2 - - - - - - -
27/07:30pm 12.2 SW 15 19 1021.3 - 0.2 - - - - - - -
27/07:00pm 12.7 SW 16 22 1020.9 - 0.2 - - - - - - -
27/06:30pm 12.9 SW 16 22 1020.5 - 0.2 - - - - - - -
27/06:00pm 13.8 SW 16 21 1020.1 - 0.2 - - - - - - -
27/05:30pm 14.0 SW 19 25 1019.6 - 0.2 - - - - - - -
27/05:00pm 14.2 SW 18 25 1019.3 - 0.2 - - - - - - -
27/04:30pm 15.0 SW 18 25 1019.1 - 0.2 - - - - - - -
27/04:00pm 15.3 SW 21 27 1018.7 - 0.2 - - - - - - -
27/03:30pm 15.3 SW 23 29 1018.5 - 0.2 - - - - - - -
27/03:00pm 16.5 SW 20 30 1018.3 - 0.2 - - - - - - -
27/02:38pm 16.6 SW 23 34 1018.3 - 0.2 - - - - - - -
27/02:30pm 16.2 SW 22 31 1018.2 - 0.2 - - - - - - -
27/02:00pm 16.6 SW 22 33 1018.3 - 0.2 - - - - - - -
27/01:30pm 16.0 SW 23 34 1018.1 - 0.2 - - - - - - -
27/01:22pm 15.7 SW 23 34 1018.1 - 0.2 - - - - - - -
27/01:00pm 14.9 SW 21 29 1018.0 - 0.2 - - - - - - -
27/12:30pm 14.5 SW 20 27 1018.1 - 0.2 - - - - - - -
27/12:00pm 13.7 SW 19 25 1017.8 - 0.2 - - - - - - -
27/11:30am 14.3 SW 20 27 1017.4 - 0.2 - - - - - - -
27/11:00am 13.6 WSW 19 25 1017.0 - 0.2 - - - - - - -
27/10:31am 13.4 SW 19 29 1016.7 - 0.0 - - - - - - -
27/10:30am 13.3 SW 20 29 1016.6 - 0.0 - - - - - - -
27/10:00am 12.9 SW 18 25 1016.4 - 0.0 - - - - - - -
27/09:30am 12.2 WSW 16 22 1015.8 - 0.0 - - - - - - -
27/09:00am 11.8 WSW 15 20 1015.7 - 10.4 - - - - - - -
27/08:30am 11.6 WSW 14 19 1015.3 - 10.4 - - - - - - -
27/08:00am 10.8 WSW 12 16 1014.8 - 10.4 - - - - - - -
27/07:30am 10.3 SW 9 12 1014.8 - 10.4 - - - - - - -
27/07:00am 10.1 SW 12 15 1014.3 - 10.4 - - - - - - -
27/06:30am 9.6 SW 10 12 1014.0 - 10.4 - - - - - - -
27/06:00am 9.2 SW 11 14 1013.3 - 10.4 - - - - - - -
27/05:30am 8.9 SSW 14 16 1012.8 - 10.4 - - - - - - -
27/05:00am 9.4 SSW 18 24 1012.0 - 10.4 - - - - - - -
27/04:52am 9.7 SSW 16 24 1011.7 - 10.4 - - - - - - -
27/04:30am 9.9 S 9 13 1010.8 - 10.4 - - - - - - -
27/04:00am 10.7 SE 5 9 1009.1 - 10.4 - - - - - - -
27/03:30am 11.2 WSW 9 14 1009.5 - 10.0 - - - - - - -
27/03:00am 11.2 SSW 11 15 1010.4 - 10.0 - - - - - - -
27/02:30am 9.9 WSW 3 7 1011.0 - 10.0 - - - - - - -
27/02:00am 9.6 NNW 6 8 1011.2 - 8.4 - - - - - - -
27/01:30am 9.8 W 7 9 1012.2 - 6.6 - - - - - - -
27/01:00am 9.7 WSW 6 7 1012.6 - 5.8 - - - - - - -
27/12:30am 9.4 WSW 6 7 1012.8 - 5.6 - - - - - - -
27/12:00am 9.4 SW 7 9 1012.8 - 5.6 - - - - - - -
 
Date/Time
EDT
Temp

°C
Wind Pressure Rain
since 9am
mm
Weather Cloud Vis
km
Sea
Height
m
Swell
Dir
 
Speed
knots
Gust
knots
hPa Trend Height
m
Period
s
Dir
26/11:30pm 8.9 SSW 8 9 1012.6 - 5.0 - - - - - - -
26/11:00pm 6.9 SSE 5 5 1012.4 - 4.0 - - - - - - -
26/10:30pm 6.6 SSE 6 6 1012.4 - 4.0 - - - - - - -
26/10:00pm 6.9 SSE 5 6 1012.1 - 4.0 - - - - - - -
26/09:30pm 7.6 SSE 5 6 1011.7 - 4.0 - - - - - - -
26/09:00pm 9.0 SSE 6 7 1011.4 - 4.0 - - - - - - -
26/08:30pm 10.0 SSE 5 7 1011.3 - 4.0 - - - - - - -
26/08:00pm 10.4 SSE 8 10 1010.8 - 4.0 - - - - - - -
26/07:30pm 10.6 SSE 9 11 1010.5 - 4.0 - - - - - - -
26/07:00pm 10.9 SSE 8 9 1010.4 - 4.0 - - - - - - -
26/06:30pm 10.7 SE 7 8 1010.1 - 4.0 - - - - - - -
26/06:00pm 11.1 N 4 5 1010.3 - 3.6 - - - - - - -
26/05:30pm 11.6 N 8 11 1010.2 - 3.4 - - - - - - -
26/05:00pm 12.1 N 10 17 1010.3 - 3.2 - - - - - - -
26/04:30pm 13.1 N 11 16 1010.3 - 3.2 - - - - - - -
26/04:00pm 12.9 NNW 14 20 1010.5 - 3.2 - - - - - - -
26/03:30pm 14.6 NNW 12 17 1010.7 - 3.2 - - - - - - -
26/03:00pm 13.3 NNW 14 19 1011.1 - 3.2 - - - - - - -
26/02:37pm 14.5 NNW 15 27 1011.1 - 3.2 - - - - - - -
26/02:30pm 15.2 NNW 15 18 1011.0 - 3.2 - - - - - - -
26/02:00pm 16.4 NNW 17 22 1011.1 - 3.2 - - - - - - -
26/01:30pm 16.0 NNW 13 18 1011.5 - 3.2 - - - - - - -
26/01:00pm 16.8 NNW 14 20 1011.7 - 3.2 - - - - - - -
26/12:30pm 16.4 NW 15 19 1011.7 - 3.2 - - - - - - -
26/12:00pm 15.8 NW 17 21 1012.0 - 3.2 - - - - - - -
26/11:59am 15.9 NW 17 21 1012.0 - 3.2 - - - - - - -
26/11:30am 14.6 NNW 6 10 1012.0 - 3.0 - - - - - - -
26/11:00am 13.2 WSW 2 5 1012.1 - 3.0 - - - - - - -
26/10:30am 10.4 SW 4 6 1012.2 - 3.0 - - - - - - -
26/10:00am 10.2 NW 19 31 1012.6 - 0.6 - - - - - - -
26/09:59am 10.4 NW 19 31 1012.5 - 0.2 - - - - - - -
26/09:30am 11.8 SW 4 5 1011.9 - 0.0 - - - - - - -
26/09:00am 9.0 N 4 4 1011.8 - 12.2 - - - - - - -
26/08:30am 9.4 N 2 5 1011.8 - 12.2 - - - - - - -
26/08:00am 9.6 NNW 4 6 1011.6 - 12.2 - - - - - - -
26/07:30am 9.1 NW 3 5 1011.5 - 9.8 - - - - - - -
26/07:00am 9.3 NNW 2 4 1011.1 - 9.8 - - - - - - -
26/06:30am 9.5 NNW 3 4 1011.0 - 9.8 - - - - - - -
26/06:00am 10.5 NW 10 14 1010.9 - 9.0 - - - - - - -
26/05:30am 10.6 N 6 8 1010.5 - 7.6 - - - - - - -
26/05:00am 10.0 N 6 8 1010.6 - 7.2 - - - - - - -
26/04:30am 9.2 NNW 5 6 1010.9 - 7.0 - - - - - - -
26/04:00am 9.1 NNW 5 6 1011.1 - 6.6 - - - - - - -
26/03:30am 9.2 W 4 5 1011.7 - 5.4 - - - - - - -
26/03:00am 9.3 W 6 9 1012.0 - 4.2 - - - - - - -
26/02:30am 9.6 W 9 12 1012.2 - 3.2 - - - - - - -
26/02:00am 9.7 WNW 17 22 1012.4 - 2.6 - - - - - - -
26/01:30am 10.7 W 18 25 1012.1 - 0.0 - - - - - - -
26/01:00am 15.3 NNE 15 19 1011.0 - 0.0 - - - - - - -
26/12:30am 15.4 NNE 16 21 1011.4 - 0.0 - - - - - - -
26/12:00am 15.1 NNE 15 19 1011.8 - 0.0 - - - - - - -
 
Date/Time
EDT
Temp

°C
Wind Pressure Rain
since 9am
mm
Weather Cloud Vis
km
Sea
Height
m
Swell
Dir
 
Speed
knots
Gust
knots
hPa Trend Height
m
Period
s
Dir
25/11:30pm 14.6 NNE 15 20 1011.9 - 0.0 - - - - - - -
25/11:00pm 14.2 NNE 13 18 1012.1 - 0.0 - - - - - - -
25/10:30pm 13.9 NNE 12 17 1012.8 - 0.0 - - - - - - -
25/10:00pm 14.1 N 12 17 1013.1 - 0.0 - - - - - - -
25/09:30pm 13.8 N 10 14 1013.1 - 0.0 - - - - - - -
25/09:00pm 14.4 N 8 14 1013.3 - 0.0 - - - - - - -
25/08:30pm 14.3 N 9 13 1013.2 - 0.0 - - - - - - -
25/08:00pm 13.7 N 10 14 1012.8 - 0.0 - - - - - - -
25/07:30pm 13.5 N 8 11 1012.8 - 0.0 - - - - - - -
25/07:00pm 14.2 N 10 13 1012.9 - 0.0 - - - - - - -
25/06:30pm 15.0 N 10 15 1012.9 - 0.0 - - - - - - -
25/06:00pm 15.0 N 11 15 1013.0 - 0.0 - - - - - - -
25/05:30pm 16.5 N 11 16 1013.0 - 0.0 - - - - - - -
25/05:00pm 15.5 N 11 17 1013.1 - 0.0 - - - - - - -
25/04:30pm 16.1 N 11 17 1013.3 - 0.0 - - - - - - -
25/04:00pm 15.4 N 10 15 1013.7 - 0.0 - - - - - - -
25/03:30pm 15.8 NNW 9 14 1013.9 - 0.0 - - - - - - -
25/03:00pm 15.9 NNW 10 12 1014.0 - 0.0 - - - - - - -
25/02:30pm 15.9 N 10 13 1014.5 - 0.0 - - - - - - -
25/02:00pm 15.8 NNW 8 11 1014.7 - 0.0 - - - - - - -
25/01:30pm 15.7 NW 12 17 1015.2 - 0.0 - - - - - - -
25/01:00pm 15.9 NNW 11 15 1015.6 - 0.0 - - - - - - -
25/12:30pm 16.0 NNW 12 15 1015.8 - 0.0 - - - - - - -
25/12:00pm 15.4 NNW 12 18 1016.0 - 0.0 - - - - - - -
25/11:30am 15.6 NNW 9 14 1016.5 - 0.0 - - - - - - -
25/11:00am 15.0 N 10 14 1016.6 - 0.0 - - - - - - -
25/10:30am 14.8 N 10 12 1016.7 - 0.0 - - - - - - -
25/10:00am 14.1 NW 4 5 1016.9 - 0.0 - - - - - - -
25/09:30am 13.7 WNW 4 5 1016.7 - 0.0 - - - - - - -
25/09:00am 12.4 SW 2 5 1016.8 - 0.0 - - - - - - -
25/08:30am 11.2 CALM 0 0 1016.7 - 0.0 - - - - - - -
25/08:00am 10.8 CALM 0 0 1016.6 - 0.0 - - - - - - -
25/07:30am 10.7 CALM 0 0 1016.3 - 0.0 - - - - - - -
25/07:00am 10.7 SSW 2 3 1016.1 - 0.0 - - - - - - -
25/06:30am 10.9 SSW 1 3 1016.1 - 0.0 - - - - - - -
25/06:00am 10.9 CALM 0 0 1016.3 - 0.0 - - - - - - -
25/05:30am 10.6 W 3 4 1016.5 - 0.0 - - - - - - -
25/05:00am 10.8 W 3 4 1016.6 - 0.0 - - - - - - -
25/04:30am 10.7 W 4 4 1016.8 - 0.0 - - - - - - -
25/04:00am 10.7 W 3 4 1017.1 - 0.0 - - - - - - -
25/03:30am 10.9 W 4 5 1017.3 - 0.0 - - - - - - -
25/03:00am 11.1 W 4 5 1017.4 - 0.0 - - - - - - -

Other Formats:

Comma delimited format used in spreadsheet applications
http://www.bom.gov.au/fwo/IDT60701/IDT60701.94953.axf

JavaScript Object Notation format (JSON) in row-major order
http://www.bom.gov.au/fwo/IDT60701/IDT60701.94953.json